Time;durP1;ratioP1;P1;durP2;ratioP2;P2;SDS_P1;SDS_P2;PMS_P1;PMS_P2;Temp;Humidity;BMP_temperature;BMP_pressure;BME280_temperature;BME280_humidity;BME280_pressure;Samples;Min_cycle;Max_cycle;Signal;HPM_P1;HPM_P2
2022/06/25 00:01:03;;;;;;;3.10;2.90;;;;;;;18.40;50.56;99148.23;430593;1271;144198;-58
2022/06/25 00:12:31;;;;;;;5.80;3.00;;;;;;;18.38;50.44;99139.60;429846;1271;144293;-58
2022/06/25 00:21:34;;;;;;;4.00;2.60;;;;;;;18.32;50.54;99138.24;430678;1271;141643;-57
2022/06/25 00:31:40;;;;;;;3.40;3.00;;;;;;;18.30;50.50;99134.41;430391;1268;141117;-58
2022/06/25 00:41:46;;;;;;;3.40;2.90;;;;;;;18.22;50.51;99134.95;429783;1271;140303;-57
2022/06/25 00:51:54;;;;;;;7.80;3.40;;;;;;;18.09;50.50;99132.89;431345;1270;140842;-58
2022/06/25 01:02:01;;;;;;;3.60;2.60;;;;;;;17.99;50.83;99126.58;430511;1270;147033;-58
2022/06/25 01:12:08;;;;;;;3.70;3.40;;;;;;;17.91;50.78;99129.46;431315;1270;141127;-58
2022/06/25 01:22:14;;;;;;;3.40;3.10;;;;;;;17.80;50.97;99127.04;431780;1271;142790;-56
2022/06/25 01:32:20;;;;;;;5.60;3.40;;;;;;;17.68;51.24;99116.97;430396;1271;140404;-58
2022/06/25 01:52:50;;;;;;;7.40;3.70;;;;;;;17.55;51.45;99107.61;430881;1271;143114;-57
2022/06/25 02:02:56;;;;;;;5.30;3.20;;;;;;;17.47;51.56;99110.33;433069;1271;145717;-58
2022/06/25 02:13:03;;;;;;;7.10;3.70;;;;;;;17.39;51.64;99117.56;442379;1271;142087;-58
2022/06/25 02:23:10;;;;;;;4.30;3.10;;;;;;;17.36;51.71;99110.74;441174;1271;141381;-58
2022/06/25 02:33:17;;;;;;;4.70;3.30;;;;;;;17.41;51.57;99108.67;439022;1271;142133;-58
2022/06/25 02:43:23;;;;;;;3.70;3.00;;;;;;;17.48;51.45;99124.23;446757;1271;143761;-57
2022/06/25 02:53:29;;;;;;;4.00;3.50;;;;;;;17.68;51.28;99144.20;429761;1271;142484;-58
2022/06/25 03:03:35;;;;;;;3.80;3.20;;;;;;;18.89;50.19;99145.15;430322;1271;141538;-61
2022/06/25 03:13:41;;;;;;;2.50;2.20;;;;;;;20.25;48.36;99141.61;430731;1270;144496;-57
2022/06/25 03:23:47;;;;;;;4.40;2.50;;;;;;;21.40;45.52;99132.99;429928;1270;141211;-57
2022/06/25 03:33:52;;;;;;;3.20;2.40;;;;;;;23.18;43.84;99136.55;430030;1271;142149;-57
2022/06/25 03:43:58;;;;;;;6.50;3.40;;;;;;;22.40;42.08;99143.55;429366;1271;142298;-56
2022/06/25 03:54:04;;;;;;;3.00;2.60;;;;;;;20.96;44.27;99147.63;430723;1271;144542;-55
2022/06/25 04:04:10;;;;;;;7.00;3.00;;;;;;;25.54;41.45;99154.67;431210;1270;141949;-57
2022/06/25 04:14:16;;;;;;;2.30;2.20;;;;;;;30.43;34.92;99160.52;430313;1271;146062;-59
2022/06/25 04:24:22;;;;;;;4.10;2.60;;;;;;;33.61;31.19;99166.52;431313;1271;144166;-57
2022/06/25 04:34:28;;;;;;;2.10;2.00;;;;;;;35.11;27.68;99175.84;430558;1271;142329;-57
2022/06/25 04:44:32;;;;;;;;;;;;;;;37.07;25.55;99172.64;429954;1271;143215;-57
2022/06/25 04:54:38;;;;;;;2.90;2.30;;;;;;;38.39;23.49;99172.78;431063;1271;132329;-57
2022/06/25 05:04:51;;;;;;;2.30;1.80;;;;;;;39.12;21.98;99178.49;430676;1271;141938;-57
2022/06/25 05:14:58;;;;;;;1.90;1.80;;;;;;;40.22;21.00;99184.36;430851;1270;141734;-56
2022/06/25 05:25:04;;;;;;;5.50;1.50;;;;;;;40.77;19.74;99175.86;432119;1270;141396;-58
2022/06/25 05:35:11;;;;;;;2.60;1.50;;;;;;;42.07;18.87;99180.33;429799;1270;145876;-57
2022/06/25 05:45:16;;;;;;;2.90;1.60;;;;;;;43.47;17.66;99180.95;430653;1270;144384;-57
2022/06/25 05:55:23;;;;;;;1.90;1.80;;;;;;;45.27;16.63;99183.90;430222;1271;146917;-57
2022/06/25 06:05:29;;;;;;;2.40;1.80;;;;;;;45.42;15.71;99184.64;432049;1270;140553;-58
2022/06/25 06:15:35;;;;;;;2.10;1.70;;;;;;;46.98;14.95;99183.67;431002;1270;141122;-57
2022/06/25 06:25:41;;;;;;;6.10;1.80;;;;;;;47.70;14.46;99191.55;430601;1271;142398;-57
2022/06/25 06:35:47;;;;;;;1.70;1.60;;;;;;;47.85;13.97;99183.02;429604;1270;141102;-57
2022/06/25 06:45:52;;;;;;;1.90;1.70;;;;;;;47.73;13.53;99188.45;430258;1270;145883;-57
2022/06/25 06:55:59;;;;;;;3.50;1.80;;;;;;;47.96;13.68;99189.15;430102;1270;166458;-57
2022/06/25 07:06:05;;;;;;;2.90;2.40;;;;;;;49.31;12.85;99200.52;430470;1270;144723;-57
2022/06/25 07:16:10;;;;;;;4.60;4.30;;;;;;;51.77;12.11;99220.79;430341;1270;141776;-57
2022/06/25 07:26:17;;;;;;;7.50;6.90;;;;;;;54.29;11.52;99227.21;430435;1270;140562;-57
2022/06/25 07:36:22;;;;;;;9.50;9.10;;;;;;;54.86;10.53;99221.88;431572;1270;140513;-58
2022/06/25 07:46:28;;;;;;;3.70;3.60;;;;;;;53.11;10.83;99215.98;431646;1270;140153;-59
2022/06/25 07:56:34;;;;;;;3.70;1.80;;;;;;;48.29;12.75;99204.44;429853;1270;141119;-57
2022/06/25 08:06:41;;;;;;;2.50;2.00;;;;;;;39.46;17.46;99205.64;430559;1270;141265;-59
2022/06/25 08:16:47;;;;;;;2.80;2.20;;;;;;;34.13;22.31;99221.41;431638;1270;140903;-57
2022/06/25 08:26:53;;;;;;;2.80;2.60;;;;;;;31.97;25.47;99227.90;429983;1270;144384;-57
2022/06/25 08:36:59;;;;;;;3.10;2.50;;;;;;;31.11;27.21;99233.23;430504;1269;151945;-58
2022/06/25 08:47:05;;;;;;;2.30;2.10;;;;;;;30.67;28.02;99231.81;430330;1270;141491;-59
2022/06/25 08:57:11;;;;;;;3.60;2.50;;;;;;;30.57;28.81;99224.17;431019;1269;145201;-58
2022/06/25 09:07:20;;;;;;;3.50;1.90;;;;;;;30.33;28.89;99228.27;431822;1270;144190;-58
2022/06/25 09:17:26;;;;;;;3.80;1.90;;;;;;;30.32;29.33;99222.91;431452;1270;141711;-57
2022/06/25 09:27:38;;;;;;;2.90;1.80;;;;;;;30.19;29.06;99223.75;439268;1270;140773;-56
2022/06/25 09:37:44;;;;;;;3.20;1.80;;;;;;;29.85;29.33;99220.48;447709;1269;142024;-57
2022/06/25 09:47:50;;;;;;;6.70;2.00;;;;;;;29.89;29.85;99214.63;442300;1270;144474;-58
2022/06/25 09:57:56;;;;;;;2.50;1.90;;;;;;;29.94;29.65;99221.67;430370;1270;284927;-57
2022/06/25 10:08:06;;;;;;;1.90;1.80;;;;;;;29.67;29.78;99213.35;434054;1270;144916;-58
2022/06/25 10:18:12;;;;;;;1.90;1.70;;;;;;;29.33;29.99;99208.23;434935;1270;141471;-58
2022/06/25 10:28:28;;;;;;;8.20;4.20;;;;;;;29.16;30.67;99206.65;432083;1270;144408;-58
2022/06/25 10:38:34;;;;;;;15.70;4.60;;;;;;;29.09;30.89;99203.23;444858;1269;142159;-57
2022/06/25 10:48:50;;;;;;;76.50;11.80;;;;;;;29.08;30.91;99211.10;430643;1270;141861;-59
2022/06/25 10:58:56;;;;;;;2.60;2.10;;;;;;;28.87;30.98;99207.27;430799;1270;141451;-58
2022/06/25 11:09:11;;;;;;;3.30;2.00;;;;;;;28.73;31.27;99205.33;431259;1270;141405;-60
2022/06/25 11:19:17;;;;;;;3.30;2.00;;;;;;;28.72;30.72;99201.23;431978;1270;140506;-57
2022/06/25 11:29:26;;;;;;;3.50;1.60;;;;;;;28.66;30.76;99197.15;431852;1270;141687;-57
2022/06/25 11:39:32;;;;;;;6.60;1.90;;;;;;;28.91;30.62;99200.65;432030;1270;197359;-58
2022/06/25 11:49:39;;;;;;;1.80;1.60;;;;;;;28.91;30.42;99200.98;431123;1270;141218;-57
2022/06/25 11:59:46;;;;;;;8.00;2.90;;;;;;;28.92;30.85;99193.23;431218;1270;141733;-58
2022/06/25 12:09:54;;;;;;;8.30;2.70;;;;;;;28.90;30.81;99201.45;431989;1270;141899;-57
2022/06/25 12:20:07;;;;;;;1.90;1.80;;;;;;;28.78;30.13;99199.98;430551;1270;142169;-59
2022/06/25 12:30:13;;;;;;;14.80;3.80;;;;;;;28.69;31.19;99201.77;431646;1270;140940;-66
2022/06/25 12:40:25;;;;;;;2.30;2.00;;;;;;;28.57;30.47;99195.53;431499;1271;140805;-70
2022/06/25 12:50:33;;;;;;;3.00;2.10;;;;;;;28.76;30.46;99189.38;434723;1271;141457;-68
2022/06/25 13:00:41;;;;;;;2.40;2.00;;;;;;;28.80;29.92;99186.88;432577;1270;140876;-70
2022/06/25 13:10:53;;;;;;;3.80;1.80;;;;;;;28.82;29.69;99186.50;431003;1271;141224;-70
2022/06/25 13:21:00;;;;;;;4.70;2.00;;;;;;;28.80;29.66;99192.34;431243;1270;142240;-68
2022/06/25 13:31:06;;;;;;;2.30;1.80;;;;;;;29.14;29.40;99186.55;431323;1271;142241;-69
2022/06/25 13:41:12;;;;;;;3.20;1.90;;;;;;;29.52;29.09;99185.75;430953;1270;141070;-69
2022/06/25 13:51:18;;;;;;;3.80;2.30;;;;;;;29.32;28.95;99189.70;430747;1271;141602;-71
2022/06/25 14:01:24;;;;;;;2.80;2.10;;;;;;;29.08;28.95;99183.82;431153;1271;140823;-70
2022/06/25 14:11:31;;;;;;;6.70;2.00;;;;;;;28.77;29.16;99185.23;430998;1270;141623;-70
2022/06/25 14:21:37;;;;;;;2.50;1.60;;;;;;;28.51;29.08;99173.51;447368;1271;199683;-71
2022/06/25 14:31:43;;;;;;;2.10;2.00;;;;;;;28.51;29.40;99179.44;440725;1271;142281;-70
2022/06/25 14:52:15;;;;;;;2.20;1.90;;;;;;;28.54;27.69;99175.04;433504;1269;144801;-67
2022/06/25 15:02:21;;;;;;;1.70;1.60;;;;;;;28.44;27.30;99161.25;438240;1270;141261;-69
2022/06/25 15:12:28;;;;;;;1.50;1.40;;;;;;;28.47;26.96;99157.02;447173;1270;142568;-70
2022/06/25 15:22:34;;;;;;;1.40;1.30;;;;;;;28.51;26.83;99157.34;446395;1269;141951;-70
2022/06/25 15:32:40;;;;;;;1.90;1.80;;;;;;;28.58;26.61;99155.17;444930;1270;141267;-70
2022/06/25 15:42:45;;;;;;;3.30;1.70;;;;;;;28.55;26.55;99154.02;435394;1270;141956;-70
2022/06/25 15:52:51;;;;;;;1.40;1.30;;;;;;;28.50;27.10;99152.90;431551;1270;140428;-71
2022/06/25 16:02:57;;;;;;;3.10;1.60;;;;;;;28.37;25.80;99147.52;431441;1270;142405;-69
2022/06/25 16:13:03;;;;;;;1.70;1.50;;;;;;;28.14;27.35;99152.15;431371;1270;145631;-69
2022/06/25 16:23:09;;;;;;;2.70;1.80;;;;;;;28.13;27.86;99150.13;430547;1271;140609;-67
2022/06/25 16:33:15;;;;;;;3.40;1.70;;;;;;;28.07;27.94;99153.67;430624;1270;141493;-70
2022/06/25 16:44:00;;;;;;;6.10;2.40;;;;;;;28.01;28.01;99155.15;431049;1270;148201;-71
2022/06/25 16:53:58;;;;;;;2.50;1.70;;;;;;;28.05;27.74;99160.73;430280;1270;141960;-71
2022/06/25 17:04:05;;;;;;;2.20;1.90;;;;;;;27.95;27.59;99162.59;431391;1270;143270;-69
2022/06/25 17:14:11;;;;;;;1.80;1.70;;;;;;;27.84;27.45;99173.83;431027;1270;141426;-69
2022/06/25 17:24:17;;;;;;;2.70;2.00;;;;;;;27.64;27.67;99179.86;434766;1269;142012;-70
2022/06/25 17:34:23;;;;;;;2.00;1.80;;;;;;;27.49;28.05;99194.55;431231;1270;144650;-70
2022/06/25 17:44:29;;;;;;;5.10;2.60;;;;;;;27.32;27.86;99195.50;446017;1270;145264;-70
2022/06/25 17:54:34;;;;;;;3.20;1.80;;;;;;;27.20;27.63;99200.98;447765;1269;141867;-70
2022/06/25 18:04:41;;;;;;;4.10;2.00;;;;;;;27.62;27.13;99206.85;438017;1269;142255;-69
2022/06/25 18:14:47;;;;;;;3.00;1.90;;;;;;;27.21;27.76;99208.23;441662;1269;141688;-68
2022/06/25 18:24:53;;;;;;;3.80;2.70;;;;;;;26.61;28.67;99217.81;440910;1270;141548;-65
2022/06/25 18:34:59;;;;;;;3.80;2.00;;;;;;;26.18;29.49;99224.92;430159;1270;147047;-65
2022/06/25 18:45:05;;;;;;;4.60;3.40;;;;;;;25.75;30.19;99233.15;431546;1270;140586;-70
2022/06/25 18:55:11;;;;;;;3.00;2.60;;;;;;;25.33;30.75;99238.38;431351;1269;140781;-67
2022/06/25 19:05:17;;;;;;;4.00;2.10;;;;;;;24.95;31.24;99255.38;430130;1270;142817;-69
2022/06/25 19:15:23;;;;;;;565.20;58.50;;;;;;;24.64;32.10;99262.47;431023;1270;143089;-59
2022/06/25 19:25:30;;;;;;;3.30;2.60;;;;;;;24.38;32.76;99274.42;430636;1269;181084;-59
2022/06/25 19:35:36;;;;;;;3.90;2.50;;;;;;;24.10;33.21;99284.13;430795;1270;147053;-58
2022/06/25 19:45:42;;;;;;;3.00;2.40;;;;;;;23.86;33.79;99291.78;430892;1270;141712;-59
2022/06/25 19:55:47;;;;;;;4.90;2.40;;;;;;;23.59;34.49;99298.13;431132;1270;143268;-58
2022/06/25 20:05:54;;;;;;;7.00;3.70;;;;;;;23.33;34.81;99307.61;430917;1270;146412;-59
2022/06/25 20:16:00;;;;;;;5.60;3.80;;;;;;;23.12;35.10;99313.45;431297;1269;146216;-58
2022/06/25 20:26:06;;;;;;;5.20;2.70;;;;;;;22.92;35.51;99323.14;431557;1270;142590;-58
2022/06/25 20:36:12;;;;;;;4.40;2.90;;;;;;;22.79;35.74;99324.52;431665;1270;140816;-60
2022/06/25 20:46:18;;;;;;;3.80;2.80;;;;;;;22.67;36.04;99327.77;430799;1269;141126;-58
2022/06/25 20:56:24;;;;;;;5.00;3.10;;;;;;;22.49;36.46;99330.21;445652;1269;142280;-60
2022/06/25 21:16:53;;;;;;;6.70;3.30;;;;;;;22.21;37.22;99335.29;435311;1269;140892;-59
2022/06/25 21:27:01;;;;;;;4.90;4.10;;;;;;;22.04;37.65;99335.38;440669;1270;141084;-60
2022/06/25 21:37:07;;;;;;;3.10;2.90;;;;;;;21.95;37.96;99330.50;434706;1270;140721;-59
2022/06/25 21:47:13;;;;;;;3.10;2.70;;;;;;;21.84;38.30;99333.80;430565;1270;141668;-58
2022/06/25 21:57:18;;;;;;;3.40;3.10;;;;;;;21.70;38.66;99336.61;447362;1270;216072;-59
2022/06/25 22:07:24;;;;;;;4.10;3.40;;;;;;;21.64;38.87;99340.64;442580;1270;146998;-59
2022/06/25 22:17:30;;;;;;;4.70;2.60;;;;;;;21.50;39.25;99342.73;430391;1270;142045;-59
2022/06/25 22:27:37;;;;;;;3.90;3.20;;;;;;;21.36;39.62;99339.73;431111;1270;140882;-59
2022/06/25 22:37:43;;;;;;;5.10;3.20;;;;;;;21.21;40.17;99343.58;431245;1270;141787;-58
2022/06/25 22:47:49;;;;;;;4.70;3.30;;;;;;;21.06;40.52;99339.55;430633;1270;142061;-59
2022/06/25 22:57:56;;;;;;;3.50;3.20;;;;;;;20.96;41.05;99350.02;431297;1270;141291;-60
2022/06/25 23:08:01;;;;;;;5.20;3.60;;;;;;;20.95;41.33;99350.23;430428;1270;142225;-60
2022/06/25 23:18:13;;;;;;;4.30;3.90;;;;;;;20.84;41.67;99357.98;431035;1270;141508;-59
2022/06/25 23:28:19;;;;;;;5.20;3.30;;;;;;;20.69;42.07;99358.20;430948;1270;141975;-58
2022/06/25 23:38:24;;;;;;;4.50;3.50;;;;;;;20.62;42.52;99362.38;436148;1269;141338;-57
2022/06/25 23:48:30;;;;;;;3.50;3.10;;;;;;;20.54;43.11;99365.70;437146;1270;140872;-60
2022/06/25 23:58:36;;;;;;;4.20;3.60;;;;;;;20.45;43.35;99373.56;442002;1270;142096;-61
